Luling, LA

4:26 PM CST on February 05, 2016 (GMT -0600)
APRSWXNET | | Change Station
CLOSE
Current Station
Personal Weather Station
Location: Luling, LA
Elevation: 9 ft
Nearby Weather Stations

Elev 9 ft 29.90 °N, 90.34 °W | Updated 19 minutes ago

Clear
Clear
54 °F
Feels Like 54 °F
N
0
Wind Variable Wind from NE
Gusts 3.0 mph

Today
High -- | Low -- °F
--% Chance of Precip.
Yesterday
High -- | Low -- °F
Precip. -- in
Pressure 30.41 in
Visibility 10.0 miles
Clouds Few 500 ft
Dew Point 23 °F
Humidity 30%
Rainfall in
Snow Depth Not available.
6:49 AM 5:41 PM
Waning Crescent, 9% visible
METAR KMSY 052153Z 02006KT 10SM FEW005 13/M09 A3040 RMK AO2 SLP297 FU FEW005 SE T01281089
Pressure 30.41 in
Visibility 10.0 miles
Clouds Few 500 ft
Dew Point 23 °F
Humidity 30%
Rainfall in
Snow Depth Not available.
6:49 AM 5:41 PM
Waning Crescent, 9% visible
METAR KMSY 052153Z 02006KT 10SM FEW005 13/M09 A3040 RMK AO2 SLP297 FU FEW005 SE T01281089

10-Day Weather Forecast

Almanac

Astronomy

Feb. 05, 2016 Rise Set
Actual Time
Civil Twilight
Nautical Twilight
Astronomical Twilight
Moon
Length of Visible Light
Length of Day
Tomorrow will be .
, % of the Moon is Illuminated

Today's Extremes

State Highs State Lows

Community

WunderPhotos

Upload Photos

1,890,878 photos uploaded!

WunderBlog® & News

Nearby

Air Quality

  Air Quality AQ Index Pollutant
Not available.

Snow Depth

Station Depth Elevation

Earthquake Activity

City Distance Mag. Time & Date
Minimum magnitude displayed is 2.5.

Coastal Water Temperatures

Place Temperature

Stations

Nearby Weather Stations

Station Location Temp. Windchill Dew Point Humidity Wind Precip. Elev Updated Type
                   

Watches & Warnings

There are currently no watches in effect.